»·PEaware :: C-EDGE KTOA-KVNY

C-EDGE :: KTOA-KVNY

FLIGHT INFORMATION

Flight Status: Arrived
Operator: Privately registered:
Canada
More flights under this callsign
Pilot: Scott G. (88)
Aircraft: PIPER PA-44 SEMINOLE
(PA44)
More flights by this aircraft type
Origin: KTOA Zamperini
United States
Destination: KVNY Van Nuys
United States
More flights between these airports :: More routes between these airports
Route: +
File this flight plan on PilotEdge
Remarks: CAT 10
Altitude:
(Current/Filed)
2,500ft
Speed:
(Current/Filed)
150kts
Departed: 28-Feb-17 04:01 PM
Arrived: 28-Feb-17 04:21 PM
Distance/Time
Traveled:
25nm/0:20
Distance/Time
To Go:
Arrived

Flight Plot

Page will automatically refresh every two minutes.


Map Options




Map Legend


Flown Route
Filed Route
Departure Airport
Arrival Airport
Navaid (VOR, NDB)
Fix

Horizontal Profiles

Position Reports

Time Latitude Longitude Heading Altitude Ground
Speed
28-Feb-17 15:31 33.801664 -118.341517 123 104ft 0kts
28-Feb-17 15:32 33.801664 -118.341517 123 104ft 0kts
28-Feb-17 15:33 33.801663 -118.341516 123 104ft 0kts
28-Feb-17 15:34 33.801663 -118.341516 123 104ft 0kts
28-Feb-17 15:35 33.801663 -118.341516 123 104ft 0kts
28-Feb-17 15:36 33.801663 -118.341516 123 104ft 0kts
28-Feb-17 15:37 33.800826 -118.340308 31 105ft 0kts
28-Feb-17 15:38 33.800826 -118.340308 31 105ft 0kts
28-Feb-17 15:39 33.800826 -118.340308 31 105ft 0kts
28-Feb-17 15:40 33.800826 -118.340308 31 105ft 0kts
28-Feb-17 15:41 33.800826 -118.340308 31 105ft 0kts
28-Feb-17 15:42 33.800826 -118.340308 31 105ft 0kts
28-Feb-17 15:43 33.800826 -118.340308 31 105ft 0kts
28-Feb-17 15:44 33.800826 -118.340308 31 105ft 0kts
28-Feb-17 15:45 33.800826 -118.340308 31 105ft 0kts
28-Feb-17 15:46 33.800826 -118.340308 31 105ft 0kts
28-Feb-17 15:47 33.800826 -118.340308 31 105ft 0kts
28-Feb-17 15:48 33.800826 -118.340308 31 105ft 0kts
28-Feb-17 15:49 33.800826 -118.340308 31 105ft 0kts
28-Feb-17 15:50 33.800826 -118.340308 31 105ft 0kts
28-Feb-17 15:51 33.800826 -118.340308 31 105ft 0kts
28-Feb-17 15:52 33.800915 -118.340247 28 105ft 5kts
28-Feb-17 15:53 33.799191 -118.336280 130 104ft 21kts
28-Feb-17 15:54 33.798875 -118.333070 351 100ft 2kts
28-Feb-17 15:55 33.798899 -118.333083 328 100ft 0kts
28-Feb-17 15:56 33.798899 -118.333082 328 100ft 0kts
28-Feb-17 15:57 33.798899 -118.333082 328 100ft 0kts
28-Feb-17 15:58 33.799128 -118.333203 30 100ft 0kts
28-Feb-17 15:59 33.799128 -118.333203 30 100ft 0kts
28-Feb-17 16:00 33.799128 -118.333203 30 100ft 0kts
28-Feb-17 16:01 33.799196 -118.333156 29 99ft 5kts
28-Feb-17 16:02 33.807719 -118.344214 313 548ft 86kts
28-Feb-17 16:03 33.812064 -118.372670 277 1805ft 96kts
28-Feb-17 16:04 33.820342 -118.404974 288 2514ft 125kts
28-Feb-17 16:05 33.832990 -118.447579 310 2505ft 141kts
28-Feb-17 16:06 33.860642 -118.420879 70 2506ft 164kts
28-Feb-17 16:07 33.874776 -118.368554 73 2506ft 164kts
28-Feb-17 16:08 33.904683 -118.346933 321 2502ft 146kts
28-Feb-17 16:09 33.928564 -118.383837 318 2507ft 147kts
28-Feb-17 16:10 33.962597 -118.411119 323 2504ft 150kts
28-Feb-17 16:11 33.997528 -118.437588 324 2502ft 149kts
28-Feb-17 16:12 34.036199 -118.455476 347 2500ft 154kts
28-Feb-17 16:13 34.075283 -118.463170 347 2496ft 132kts
28-Feb-17 16:14 34.109088 -118.469954 347 2249ft 130kts
28-Feb-17 16:15 34.144698 -118.477071 348 1699ft 131kts
28-Feb-17 16:16 34.178688 -118.483719 354 1510ft 106kts
28-Feb-17 16:17 34.201145 -118.496273 268 2015ft 108kts
28-Feb-17 16:18 34.220217 -118.520043 350 2036ft 128kts
28-Feb-17 16:19 34.245818 -118.512942 112 1584ft 103kts
28-Feb-17 16:20 34.230809 -118.492095 179 1083ft 75kts
28-Feb-17 16:21 34.211600 -118.490561 180 780ft 43kts
28-Feb-17 16:22 34.210101 -118.491299 262 777ft 0kts
28-Feb-17 16:23 34.210071 -118.491439 242 777ft 6kts
28-Feb-17 16:24 34.208000 -118.491721 249 773ft 6kts

Navigation Log

Ident Type
Flight plan parsing failed, navigation log unavailable